Time;durP1;ratioP1;P1;durP2;ratioP2;P2;SDS_P1;SDS_P2;PMS_P1;PMS_P2;Temp;Humidity;BMP_temperature;BMP_pressure;BME280_temperature;BME280_humidity;BME280_pressure;Samples;Min_cycle;Max_cycle;Signal;HPM_P1;HPM_P2
2022/02/05 00:00:07;;;;;;;19.47;8.93;;;;;;;-5.65;68.83;99594.58;1741865;80;21086;-49
2022/02/05 00:01:54;;;;;;;46.03;17.73;;;;;;;-5.56;68.67;99594.28;1728726;80;21134;-50
2022/02/05 00:04:22;;;;;;;87.27;27.13;;;;;;;-5.49;68.58;99600.05;1701486;82;21106;-50
2022/02/05 00:06:52;;;;;;;106.17;39.77;;;;;;;-5.42;68.45;99596.64;1734512;81;21113;-51
2022/02/05 00:12:28;;;;;;;99.07;36.50;;;;;;;-5.27;68.13;99587.22;1714041;81;21080;-50
2022/02/05 00:39:18;;;;;;;21.40;9.93;;;;;;;-5.15;66.94;99574.23;1699877;82;21050;-50
2022/02/05 00:41:47;;;;;;;30.60;13.37;;;;;;;-5.12;66.86;99570.34;1726785;81;21033;-52
2022/02/05 00:44:03;;;;;;;28.67;11.63;;;;;;;-5.10;66.80;99573.84;1729078;80;21712;-49
2022/02/05 00:46:35;;;;;;;28.77;12.57;;;;;;;-5.08;66.80;99565.55;1730151;80;21523;-50
2022/02/05 00:48:59;;;;;;;30.97;13.43;;;;;;;-5.06;66.79;99567.77;1731825;80;21299;-50
2022/02/05 00:51:31;;;;;;;30.37;11.27;;;;;;;-5.03;66.80;99562.56;1732430;80;20942;-51
2022/02/05 00:54:15;;;;;;;26.37;9.50;;;;;;;-4.99;66.75;99564.34;1696187;82;21154;-50
2022/02/05 00:56:47;;;;;;;26.83;9.40;;;;;;;-4.95;66.66;99554.34;1726873;80;21156;-51
2022/02/05 00:58:53;;;;;;;21.83;8.97;;;;;;;-4.91;66.57;99552.17;1726394;81;21145;-50
2022/02/05 01:01:20;;;;;;;24.50;9.80;;;;;;;-4.88;66.59;99553.97;1729524;81;21118;-50
2022/02/05 01:03:46;;;;;;;20.77;8.80;;;;;;;-4.85;66.58;99539.56;1730324;80;21006;-51
2022/02/05 01:06:12;;;;;;;20.90;9.17;;;;;;;-4.82;66.54;99545.70;1730200;81;21459;-51
2022/02/05 01:08:39;;;;;;;13.57;6.93;;;;;;;-4.79;66.49;99538.30;1714157;81;21105;-50
2022/02/05 01:11:06;;;;;;;13.93;5.90;;;;;;;-4.75;66.41;99535.70;1731190;80;21091;-50
2022/02/05 01:13:33;;;;;;;14.37;6.13;;;;;;;-4.73;66.43;99533.98;1730595;81;22792;-50
2022/02/05 01:18:36;;;;;;;27.47;8.53;;;;;;;-4.68;66.28;99536.20;1733415;80;21091;-50
2022/02/05 01:21:35;;;;;;;16.70;5.87;;;;;;;-4.65;66.29;99537.98;1729251;81;21094;-50
2022/02/05 01:23:54;;;;;;;12.20;4.37;;;;;;;-4.64;66.19;99539.31;1731830;80;21148;-50
2022/02/05 01:26:26;;;;;;;11.10;4.50;;;;;;;-4.59;66.08;99527.09;1738784;81;21103;-50
2022/02/05 01:28:53;;;;;;;12.03;4.77;;;;;;;-4.54;66.03;99535.03;1736176;80;20896;-49
2022/02/05 01:31:16;;;;;;;9.03;4.17;;;;;;;-4.52;65.89;99528.05;1734457;81;20958;-50
2022/02/05 01:33:54;;;;;;;8.77;3.93;;;;;;;-4.48;65.86;99530.25;1738129;81;20876;-50
2022/02/05 01:36:32;;;;;;;11.63;4.77;;;;;;;-4.45;65.76;99523.28;1740514;81;20971;-50
2022/02/05 01:54:41;;;;;;;14.57;6.80;;;;;;;-4.29;65.55;99515.08;1734614;80;20959;-50
2022/02/05 01:57:09;;;;;;;10.67;5.10;;;;;;;-4.27;65.53;99518.17;1735855;80;20982;-50
2022/02/05 01:59:48;;;;;;;14.93;5.33;;;;;;;-4.25;65.46;99515.09;1736510;80;20970;-49
2022/02/05 02:04:54;;;;;;;9.38;5.12;;;;;;;-4.15;65.18;99517.36;1744742;80;21142;-50
2022/02/05 02:10:42;;;;;;;9.73;4.37;;;;;;;-4.08;65.00;99515.67;1742084;80;21057;-50
2022/02/05 02:15:49;;;;;;;11.53;6.30;;;;;;;-4.06;64.76;99511.28;1737736;80;21080;-50
2022/02/05 02:18:19;;;;;;;13.65;6.60;;;;;;;-4.05;64.73;99511.73;1740106;80;21148;-50
2022/02/05 02:26:27;;;;;;;14.70;7.10;;;;;;;-4.04;64.71;99516.12;1741489;80;21038;-49
2022/02/05 02:28:51;;;;;;;14.60;5.43;;;;;;;-4.05;64.77;99515.23;1733696;80;21096;-48
2022/02/05 02:31:17;;;;;;;14.43;6.20;;;;;;;-4.05;64.73;99523.13;1737348;80;21145;-49
2022/02/05 02:33:44;;;;;;;19.67;7.13;;;;;;;-4.06;64.83;99510.84;1735673;80;21053;-49
2022/02/05 02:36:23;;;;;;;18.43;7.00;;;;;;;-4.05;64.93;99512.61;1737408;80;21073;-51
2022/02/05 02:38:45;;;;;;;14.70;7.10;;;;;;;-4.04;64.92;99514.38;1738816;80;21061;-52
2022/02/05 02:41:14;;;;;;;18.70;7.17;;;;;;;-4.03;64.89;99508.25;1742870;80;20912;-51
2022/02/05 02:43:35;;;;;;;15.50;7.43;;;;;;;-4.01;64.85;99513.52;1738072;80;21017;-50
2022/02/05 02:46:02;;;;;;;12.83;6.70;;;;;;;-4.02;64.79;99507.38;1741684;80;21602;-51
2022/02/05 02:48:29;;;;;;;20.17;9.10;;;;;;;-4.00;64.86;99499.51;1742409;80;20990;-49
2022/02/05 02:59:00;;;;;;;16.37;8.30;;;;;;;-3.99;64.93;99485.03;1742224;80;21077;-49
2022/02/05 03:01:24;;;;;;;18.87;8.70;;;;;;;-3.97;64.92;99475.84;1740542;80;21805;-48
2022/02/05 03:03:50;;;;;;;17.67;7.30;;;;;;;-3.94;64.93;99472.81;1736091;80;21678;-49
2022/02/05 03:06:17;;;;;;;22.77;8.77;;;;;;;-3.93;64.86;99471.94;1738003;80;21097;-49
2022/02/05 03:08:47;;;;;;;15.43;7.50;;;;;;;-3.91;64.98;99466.66;1734799;81;22049;-50
2022/02/05 03:11:13;;;;;;;17.37;7.60;;;;;;;-3.90;64.93;99470.62;1736869;80;21070;-48
2022/02/05 03:13:41;;;;;;;11.77;5.67;;;;;;;-3.88;64.90;99466.69;1737461;81;21224;-50
2022/02/05 03:16:08;;;;;;;15.23;7.03;;;;;;;-3.86;64.97;99457.06;1736241;80;21459;-48
2022/02/05 03:19:00;;;;;;;18.03;8.07;;;;;;;-3.84;65.00;99460.16;1740577;81;21541;-48
2022/02/05 03:21:15;;;;;;;18.30;6.97;;;;;;;-3.84;65.06;99452.70;1731888;80;22074;-48
2022/02/05 03:23:41;;;;;;;12.90;6.73;;;;;;;-3.84;65.06;99457.52;1734523;81;22555;-48
2022/02/05 03:26:07;;;;;;;17.03;7.00;;;;;;;-3.82;65.02;99457.50;1738735;80;21693;-47
2022/02/05 03:28:35;;;;;;;13.90;6.37;;;;;;;-3.78;64.97;99464.98;1736811;80;21092;-47
2022/02/05 03:31:02;;;;;;;19.00;8.60;;;;;;;-3.76;64.87;99457.98;1736461;80;22316;-47
2022/02/05 03:33:28;;;;;;;12.70;7.37;;;;;;;-3.74;64.81;99454.94;1737189;81;21603;-49
2022/02/05 03:35:54;;;;;;;14.97;6.80;;;;;;;-3.74;64.88;99449.20;1736680;80;21080;-49
2022/02/05 03:38:21;;;;;;;14.23;6.30;;;;;;;-3.74;64.98;99457.09;1736880;81;21120;-47
2022/02/05 03:40:47;;;;;;;15.60;6.57;;;;;;;-3.73;65.01;99454.03;1738001;80;21386;-49
2022/02/05 03:43:15;;;;;;;14.80;6.67;;;;;;;-3.73;65.01;99452.28;1735544;80;21853;-49
2022/02/05 03:45:42;;;;;;;18.13;7.07;;;;;;;-3.72;65.04;99455.80;1736929;80;22072;-51
2022/02/05 03:48:08;;;;;;;14.63;7.00;;;;;;;-3.70;65.19;99459.31;1712019;81;21168;-51
2022/02/05 03:50:34;;;;;;;15.40;6.80;;;;;;;-3.69;65.16;99457.13;1734780;81;21118;-49
2022/02/05 03:53:07;;;;;;;14.83;6.07;;;;;;;-3.66;65.20;99459.35;1737517;80;21066;-47
2022/02/05 03:55:35;;;;;;;14.90;7.03;;;;;;;-3.64;65.26;99457.58;1736888;81;21120;-50
2022/02/05 03:58:01;;;;;;;11.40;6.80;;;;;;;-3.61;65.27;99455.41;1737514;81;22671;-49
2022/02/05 04:00:27;;;;;;;17.20;8.60;;;;;;;-3.60;65.25;99447.96;1701505;82;21548;-51
2022/02/05 04:02:54;;;;;;;12.73;6.43;;;;;;;-3.58;65.35;99450.17;1738214;80;21567;-49
2022/02/05 04:05:20;;;;;;;15.00;6.87;;;;;;;-3.57;65.36;99447.95;1738552;80;21100;-49
2022/02/05 04:07:51;;;;;;;12.73;4.80;;;;;;;-3.55;65.44;99444.90;1740731;80;21134;-49
2022/02/05 04:10:26;;;;;;;13.23;6.57;;;;;;;-3.55;65.39;99434.38;1739555;80;21494;-47
2022/02/05 04:18:14;;;;;;;19.57;8.93;;;;;;;-3.52;65.62;99416.86;1743540;80;21157;-50
2022/02/05 04:20:41;;;;;;;14.50;6.30;;;;;;;-3.52;65.71;99411.59;1749729;80;21455;-48
2022/02/05 04:23:08;;;;;;;14.60;5.77;;;;;;;-3.50;65.72;99415.12;1747947;80;21144;-48
2022/02/05 04:25:34;;;;;;;11.97;4.57;;;;;;;-3.44;65.69;99404.59;1743244;80;20955;-53
2022/02/05 04:28:01;;;;;;;7.03;3.27;;;;;;;-3.40;65.71;99408.56;1745422;80;20962;-48
2022/02/05 04:30:28;;;;;;;7.97;3.83;;;;;;;-3.40;65.75;99409.88;1742784;80;20915;-49
2022/02/05 04:32:54;;;;;;;9.80;4.77;;;;;;;-3.42;65.89;99411.62;1745476;80;20924;-52
2022/02/05 04:35:21;;;;;;;7.40;3.33;;;;;;;-3.42;65.90;99403.72;1742646;80;21054;-51
2022/02/05 04:37:51;;;;;;;15.23;10.90;;;;;;;-3.40;65.99;99416.45;1743581;80;20974;-50
2022/02/05 04:40:37;;;;;;;11.27;5.50;;;;;;;-3.41;66.10;99410.31;1744101;80;20871;-50
2022/02/05 05:01:42;;;;;;;16.03;3.77;;;;;;;-3.25;66.77;99411.21;1740051;80;21124;-49
2022/02/05 05:04:17;;;;;;;6.10;3.23;;;;;;;-3.24;66.81;99408.59;1732013;81;20930;-50
2022/02/05 05:09:14;;;;;;;10.80;3.70;;;;;;;-3.19;66.96;99419.98;1738063;81;21312;-48
2022/02/05 05:19:46;;;;;;;8.27;3.40;;;;;;;-3.08;67.09;99414.30;1636233;84;21138;-48
2022/02/05 05:22:04;;;;;;;7.53;3.37;;;;;;;-3.05;67.13;99415.60;1631634;85;21199;-51
2022/02/05 05:24:31;;;;;;;7.30;3.27;;;;;;;-3.04;67.23;99415.16;1669875;81;21144;-49
2022/02/05 05:26:57;;;;;;;5.63;2.13;;;;;;;-3.05;67.38;99414.28;1693182;82;21135;-48
2022/02/05 05:29:24;;;;;;;6.20;2.83;;;;;;;-3.03;67.46;99418.24;1731059;81;21081;-50
2022/02/05 05:31:52;;;;;;;9.33;3.50;;;;;;;-3.02;67.53;99420.44;1731271;80;21096;-49
2022/02/05 05:34:19;;;;;;;5.67;2.97;;;;;;;-3.01;67.61;99423.52;1731927;80;21139;-50
2022/02/05 05:36:45;;;;;;;6.70;4.30;;;;;;;-3.00;67.72;99418.69;1687773;82;21108;-48
2022/02/05 05:39:13;;;;;;;9.30;4.40;;;;;;;-2.99;67.82;99420.02;1730643;81;21166;-50
2022/02/05 05:41:39;;;;;;;7.97;3.67;;;;;;;-2.98;67.97;99411.24;1728041;81;21100;-50
2022/02/05 05:47:03;;;;;;;9.93;3.93;;;;;;;-2.95;68.09;99404.64;1735880;81;21631;-51
2022/02/05 05:49:44;;;;;;;7.30;3.13;;;;;;;-2.93;68.26;99411.23;1727972;81;21128;-51
2022/02/05 05:51:48;;;;;;;8.43;4.07;;;;;;;-2.91;68.31;99414.75;1727665;81;21484;-52
2022/02/05 05:54:15;;;;;;;7.90;3.83;;;;;;;-2.90;68.44;99409.48;1738879;81;20983;-52
2022/02/05 05:56:43;;;;;;;8.80;3.67;;;;;;;-2.88;68.58;99405.51;1714037;81;21070;-49
2022/02/05 05:59:10;;;;;;;8.10;4.20;;;;;;;-2.88;68.67;99406.83;1729665;81;21102;-48
2022/02/05 06:01:37;;;;;;;9.13;4.90;;;;;;;-2.88;68.76;99395.85;1734112;80;21517;-51
2022/02/05 06:04:04;;;;;;;11.63;5.00;;;;;;;-2.84;68.90;99396.31;1739752;80;21171;-48
2022/02/05 06:06:31;;;;;;;8.60;3.43;;;;;;;-2.82;69.04;99391.05;1743659;80;21434;-51
2022/02/05 06:08:58;;;;;;;11.77;4.77;;;;;;;-2.82;69.13;99389.29;1741516;80;21159;-46
2022/02/05 06:11:26;;;;;;;8.57;3.03;;;;;;;-2.80;69.24;99390.58;1741001;80;21449;-51
2022/02/05 06:13:53;;;;;;;7.87;4.37;;;;;;;-2.78;69.36;99388.83;1741694;80;21057;-51
2022/02/05 06:16:23;;;;;;;7.93;4.33;;;;;;;-2.77;69.37;99386.64;1743615;80;21117;-50
2022/02/05 06:18:47;;;;;;;8.30;4.00;;;;;;;-2.74;69.47;99386.64;1739017;80;22297;-50
2022/02/05 06:21:14;;;;;;;10.17;4.77;;;;;;;-2.73;69.55;99390.61;1739101;80;22404;-50
2022/02/05 06:23:40;;;;;;;8.77;4.40;;;;;;;-2.72;69.66;99381.80;1741405;80;21097;-47
2022/02/05 06:26:08;;;;;;;13.47;4.90;;;;;;;-2.70;69.74;99378.72;1739934;80;21559;-48
2022/02/05 06:28:35;;;;;;;5.27;3.13;;;;;;;-2.67;69.81;99381.36;1739661;80;21156;-51
2022/02/05 06:31:02;;;;;;;9.33;3.63;;;;;;;-2.63;69.84;99378.70;1744139;80;21171;-48
2022/02/05 06:33:28;;;;;;;8.43;4.47;;;;;;;-2.61;69.84;99384.86;1738694;80;21037;-48
2022/02/05 06:35:54;;;;;;;10.90;4.80;;;;;;;-2.61;69.89;99379.16;1743756;80;21104;-51
2022/02/05 06:38:21;;;;;;;8.97;4.90;;;;;;;-2.59;69.93;99379.16;1738658;80;21351;-50
2022/02/05 06:40:47;;;;;;;7.63;4.57;;;;;;;-2.57;69.96;99376.08;1739805;80;21073;-49
2022/02/05 06:43:13;;;;;;;7.90;4.30;;;;;;;-2.54;69.99;99382.20;1739367;80;21525;-48
2022/02/05 06:45:40;;;;;;;6.63;3.43;;;;;;;-2.51;70.00;99379.58;1739678;80;21054;-51
2022/02/05 06:48:07;;;;;;;8.03;3.73;;;;;;;-2.48;69.94;99375.63;1741458;80;21329;-52
2022/02/05 06:50:33;;;;;;;6.23;3.47;;;;;;;-2.45;70.00;99365.50;1738765;80;21077;-49
2022/02/05 06:53:00;;;;;;;9.10;4.50;;;;;;;-2.45;69.97;99369.45;1738412;80;22249;-48
2022/02/05 06:55:28;;;;;;;7.73;3.67;;;;;;;-2.45;70.03;99368.13;1741216;80;21080;-51
2022/02/05 06:57:54;;;;;;;8.67;4.10;;;;;;;-2.44;70.17;99364.62;1741562;80;21124;-50
2022/02/05 07:00:21;;;;;;;15.67;10.50;;;;;;;-2.43;70.19;99364.62;1741593;80;21053;-51
2022/02/05 07:02:47;;;;;;;17.13;13.40;;;;;;;-2.41;70.26;99373.84;1744530;80;21081;-48
2022/02/05 07:05:13;;;;;;;11.27;6.30;;;;;;;-2.41;70.37;99366.82;1741268;80;21803;-48
2022/02/05 07:07:41;;;;;;;9.47;4.67;;;;;;;-2.38;70.55;99365.91;1740487;80;21658;-51
2022/02/05 07:10:09;;;;;;;9.93;5.37;;;;;;;-2.39;70.78;99355.84;1737506;80;21037;-48
2022/02/05 07:12:54;;;;;;;6.60;3.67;;;;;;;-2.37;70.90;99359.77;1745121;80;21549;-52
2022/02/05 07:15:15;;;;;;;9.93;5.00;;;;;;;-2.37;71.07;99361.96;1741296;80;20961;-48
2022/02/05 07:17:44;;;;;;;7.37;4.57;;;;;;;-2.35;71.19;99358.01;1738931;80;21180;-50
2022/02/05 07:20:18;;;;;;;10.57;5.80;;;;;;;-2.34;71.36;99354.06;1741245;80;21098;-49
2022/02/05 07:22:49;;;;;;;7.93;4.73;;;;;;;-2.33;71.47;99354.94;1744577;80;20934;-49
2022/02/05 07:30:24;;;;;;;7.07;4.37;;;;;;;-2.30;71.94;99337.33;1747068;80;21084;-48
2022/02/05 07:32:50;;;;;;;9.27;4.97;;;;;;;-2.29;72.04;99330.30;1743537;80;20990;-48
2022/02/05 07:35:17;;;;;;;11.00;5.27;;;;;;;-2.27;72.12;99335.13;1746069;80;20900;-49
2022/02/05 07:37:43;;;;;;;9.80;4.90;;;;;;;-2.24;72.23;99334.25;1746050;80;20919;-50
2022/02/05 07:40:10;;;;;;;7.90;4.63;;;;;;;-2.22;72.30;99329.86;1745352;80;20986;-50
2022/02/05 07:42:37;;;;;;;7.83;4.23;;;;;;;-2.18;72.44;99336.86;1741096;80;21499;-48
2022/02/05 07:45:05;;;;;;;13.27;8.07;;;;;;;-2.17;72.54;99317.52;1742106;80;20875;-51
2022/02/05 07:47:34;;;;;;;52.50;24.83;;;;;;;-2.14;72.67;99308.30;1746609;80;20916;-48
2022/02/05 07:50:00;;;;;;;48.33;24.47;;;;;;;-2.12;72.71;99298.15;1748485;80;21101;-49
2022/02/05 07:52:27;;;;;;;27.80;14.43;;;;;;;-2.08;72.73;99301.22;1739726;80;21101;-48
2022/02/05 07:54:53;;;;;;;19.67;11.57;;;;;;;-2.05;72.80;99294.63;1737233;80;21512;-48
2022/02/05 07:57:19;;;;;;;13.67;7.80;;;;;;;-2.02;72.79;99289.31;1742746;81;21530;-49
2022/02/05 07:59:46;;;;;;;11.80;7.20;;;;;;;-2.01;72.85;99284.48;1732834;80;21507;-51
2022/02/05 08:02:12;;;;;;;13.43;7.53;;;;;;;-1.99;72.89;99276.56;1737732;80;21082;-48
2022/02/05 08:04:40;;;;;;;13.33;6.93;;;;;;;-1.98;72.93;99282.28;1732668;80;21640;-51
2022/02/05 08:07:08;;;;;;;12.13;6.63;;;;;;;-1.98;72.99;99262.05;1733793;80;21740;-49
2022/02/05 08:12:17;;;;;;;13.90;6.10;;;;;;;-1.93;73.12;99272.56;1697993;80;21108;-50
2022/02/05 08:14:48;;;;;;;11.27;5.30;;;;;;;-1.89;73.18;99279.59;1735568;81;21093;-51
2022/02/05 08:17:21;;;;;;;10.00;5.50;;;;;;;-1.86;73.27;99276.91;1736358;80;21749;-51
2022/02/05 08:19:42;;;;;;;10.53;5.70;;;;;;;-1.84;73.31;99272.95;1732839;81;21212;-51
2022/02/05 08:22:08;;;;;;;12.07;5.57;;;;;;;-1.83;73.36;99262.83;1732644;81;21070;-51
2022/02/05 08:24:35;;;;;;;8.03;5.13;;;;;;;-1.82;73.48;99257.55;1733155;81;21078;-52
2022/02/05 08:27:01;;;;;;;9.87;5.50;;;;;;;-1.82;73.58;99251.40;1734111;80;21023;-51
2022/02/05 08:29:30;;;;;;;11.17;6.10;;;;;;;-1.81;73.75;99255.35;1735124;81;21611;-50
2022/02/05 08:31:58;;;;;;;10.60;4.10;;;;;;;-1.82;73.85;99252.72;1738684;81;22732;-52
2022/02/05 08:34:24;;;;;;;6.37;3.90;;;;;;;-1.80;73.95;99250.52;1733606;80;21108;-52
2022/02/05 08:36:51;;;;;;;9.27;5.63;;;;;;;-1.76;73.99;99256.19;1734667;80;21413;-52
2022/02/05 08:39:18;;;;;;;9.07;6.53;;;;;;;-1.73;74.04;99258.81;1735310;80;21094;-49
2022/02/05 08:41:44;;;;;;;8.47;5.30;;;;;;;-1.69;74.06;99255.25;1736346;81;21349;-50
2022/02/05 08:44:10;;;;;;;14.57;7.10;;;;;;;-1.64;74.08;99257.43;1731377;81;21113;-51
2022/02/05 08:46:37;;;;;;;13.43;5.03;;;;;;;-1.60;74.08;99257.82;1717948;80;21038;-50
2022/02/05 08:49:04;;;;;;;8.57;5.13;;;;;;;-1.55;74.08;99261.77;1736226;80;21158;-51
2022/02/05 08:51:32;;;;;;;7.23;4.57;;;;;;;-1.50;74.13;99258.62;1731124;80;21724;-50
2022/02/05 08:53:59;;;;;;;10.20;4.50;;;;;;;-1.47;74.11;99265.22;1732772;80;22755;-51
2022/02/05 08:56:26;;;;;;;7.80;4.83;;;;;;;-1.43;74.12;99260.33;1728739;80;21139;-50
2022/02/05 08:58:58;;;;;;;8.70;4.80;;;;;;;-1.39;74.12;99253.27;1731092;81;21053;-51
2022/02/05 09:01:29;;;;;;;8.67;5.07;;;;;;;-1.38;74.10;99250.62;1735935;81;21137;-50
2022/02/05 09:06:31;;;;;;;9.30;5.97;;;;;;;-1.30;74.11;99249.23;1729734;81;21071;-50
2022/02/05 09:09:08;;;;;;;10.60;4.73;;;;;;;-1.28;74.15;99241.74;1734508;81;21104;-49
2022/02/05 09:14:10;;;;;;;9.13;5.30;;;;;;;-1.20;74.15;99235.06;1733047;80;21682;-51
2022/02/05 09:16:24;;;;;;;9.10;5.30;;;;;;;-1.16;74.21;99224.89;1735628;80;21074;-50
2022/02/05 09:18:50;;;;;;;10.57;7.20;;;;;;;-1.09;74.09;99221.73;1735389;80;21551;-48
2022/02/05 09:21:17;;;;;;;11.80;6.20;;;;;;;-1.05;74.09;99219.50;1732418;81;21105;-48
2022/02/05 09:23:52;;;;;;;9.30;6.73;;;;;;;-1.03;74.04;99215.09;1734303;80;21085;-49
2022/02/05 09:26:15;;;;;;;9.47;5.43;;;;;;;-1.01;74.03;99214.60;1727372;80;21050;-48
2022/02/05 09:28:42;;;;;;;11.07;6.60;;;;;;;-1.00;74.02;99210.63;1734284;80;21637;-49
2022/02/05 09:33:37;;;;;;;10.27;6.13;;;;;;;-0.92;74.02;99200.86;1732520;81;21217;-50
2022/02/05 09:36:05;;;;;;;11.17;5.77;;;;;;;-0.87;74.00;99203.02;1736113;80;21532;-50
2022/02/05 09:38:33;;;;;;;7.77;6.23;;;;;;;-0.83;73.99;99194.59;1735003;80;21057;-52
2022/02/05 09:40:59;;;;;;;7.97;5.83;;;;;;;-0.79;73.92;99189.72;1731525;81;21112;-52
2022/02/05 09:43:28;;;;;;;9.63;6.30;;;;;;;-0.76;73.89;99193.63;1730880;81;21062;-51
2022/02/05 09:45:57;;;;;;;11.53;6.33;;;;;;;-0.73;73.84;99194.92;1736416;80;22260;-50
2022/02/05 09:48:24;;;;;;;15.30;6.40;;;;;;;-0.71;73.79;99186.98;1733617;80;21053;-52
2022/02/05 09:50:50;;;;;;;14.07;7.40;;;;;;;-0.70;73.84;99180.36;1730198;81;21085;-52
2022/02/05 09:53:20;;;;;;;15.23;8.33;;;;;;;-0.68;73.96;99184.31;1735403;80;21053;-52
2022/02/05 09:55:49;;;;;;;12.33;7.20;;;;;;;-0.66;73.95;99189.98;1739305;79;20950;-53
2022/02/05 09:58:16;;;;;;;9.53;6.07;;;;;;;-0.64;73.97;99181.59;1743426;81;21096;-53
2022/02/05 10:01:09;;;;;;;11.20;7.47;;;;;;;-0.62;74.09;99175.85;1737058;80;20994;-52
2022/02/05 10:03:33;;;;;;;12.27;6.13;;;;;;;-0.60;74.14;99183.32;1728008;81;22130;-53
2022/02/05 10:06:23;;;;;;;9.73;6.17;;;;;;;-0.60;74.17;99177.16;1728691;81;21145;-52
2022/02/05 10:08:49;;;;;;;11.30;6.97;;;;;;;-0.60;74.12;99169.23;1731784;81;21495;-53
2022/02/05 10:11:16;;;;;;;10.27;6.23;;;;;;;-0.59;74.15;99165.66;1727463;80;21295;-51
2022/02/05 10:13:42;;;;;;;12.17;7.40;;;;;;;-0.59;74.15;99161.70;1735126;80;21495;-53
2022/02/05 10:16:09;;;;;;;12.33;6.77;;;;;;;-0.58;74.17;99161.69;1734230;81;21669;-53
2022/02/05 10:18:39;;;;;;;14.97;7.87;;;;;;;-0.56;74.22;99165.19;1736173;80;21076;-53
2022/02/05 10:21:27;;;;;;;11.37;7.10;;;;;;;-0.53;74.26;99164.28;1734887;81;21069;-52
2022/02/05 10:24:01;;;;;;;14.70;8.23;;;;;;;-0.51;74.29;99163.34;1730516;80;21157;-51
2022/02/05 10:26:33;;;;;;;18.60;10.43;;;;;;;-0.47;74.32;99160.23;1683794;83;21069;-51
2022/02/05 10:29:14;;;;;;;13.03;6.43;;;;;;;-0.44;74.37;99157.11;1669802;84;20963;-49
2022/02/05 10:35:01;;;;;;;15.67;9.10;;;;;;;-0.38;74.41;99156.14;1734364;81;22214;-50
2022/02/05 10:37:27;;;;;;;28.40;14.20;;;;;;;-0.34;74.42;99149.05;1734550;80;21040;-51
2022/02/05 10:40:09;;;;;;;15.73;8.20;;;;;;;-0.31;74.48;99154.27;1713898;81;21125;-50
2022/02/05 10:45:09;;;;;;;27.77;15.18;;;;;;;-0.29;74.57;99131.33;1738675;81;21027;-48
2022/02/05 10:47:57;;;;;;;22.50;11.53;;;;;;;-0.29;74.71;99115.47;1702474;82;21161;-49
2022/02/05 10:50:29;;;;;;;21.43;12.03;;;;;;;-0.28;74.86;99126.03;1734333;81;21145;-49
2022/02/05 10:53:17;;;;;;;25.03;12.60;;;;;;;-0.26;75.02;99119.40;1739088;80;20918;-52
2022/02/05 11:07:19;;;;;;;19.87;11.70;;;;;;;-0.16;75.60;99104.66;1729504;81;20945;-50
2022/02/05 11:09:53;;;;;;;15.07;10.10;;;;;;;-0.14;75.73;99105.52;1725698;81;21855;-49
2022/02/05 11:20:20;;;;;;;15.57;9.93;;;;;;;-0.03;75.91;99088.16;1765692;79;21292;-51
2022/02/05 11:23:03;;;;;;;15.80;8.17;;;;;;;-0.04;75.88;99079.35;1767663;79;21269;-52
2022/02/05 11:25:41;;;;;;;19.30;9.63;;;;;;;-0.01;75.83;99077.11;1728667;80;21093;-52
2022/02/05 11:28:10;;;;;;;13.13;7.33;;;;;;;-0.03;75.92;99078.45;1733160;80;21143;-52
2022/02/05 11:30:51;;;;;;;14.67;9.17;;;;;;;-0.01;75.92;99075.79;1738072;80;21132;-52
2022/02/05 11:33:29;;;;;;;17.30;10.13;;;;;;;0.00;75.88;99085.00;1707025;82;20926;-51
2022/02/05 11:38:42;;;;;;;18.97;9.87;;;;;;;0.03;75.88;99066.01;1694131;82;20878;-53
2022/02/05 11:41:34;;;;;;;16.33;9.97;;;;;;;0.03;75.94;99058.07;1706395;82;21045;-52
2022/02/05 11:44:16;;;;;;;17.43;9.33;;;;;;;0.05;75.91;99049.66;1706818;82;21066;-52
2022/02/05 11:47:12;;;;;;;18.13;9.97;;;;;;;0.07;75.97;99050.07;1709778;82;20942;-52
2022/02/05 11:49:59;;;;;;;17.80;9.33;;;;;;;0.09;75.92;99048.25;1709539;82;21402;-51
2022/02/05 11:52:45;;;;;;;12.97;8.40;;;;;;;0.12;75.84;99049.98;1708294;81;21491;-51
2022/02/05 11:55:33;;;;;;;15.80;8.80;;;;;;;0.10;75.79;99039.41;1731683;80;21385;-52
2022/02/05 11:58:02;;;;;;;16.87;9.43;;;;;;;0.12;75.75;99029.68;1717019;81;21241;-53
2022/02/05 12:00:48;;;;;;;13.13;8.30;;;;;;;0.14;75.77;99033.18;1709124;82;21085;-51
2022/02/05 12:03:28;;;;;;;16.73;10.77;;;;;;;0.20;75.66;99021.59;1707224;82;22492;-49
2022/02/05 12:05:59;;;;;;;17.40;8.63;;;;;;;0.23;75.53;99015.81;1705389;82;21172;-51
2022/02/05 12:08:25;;;;;;;18.20;9.60;;;;;;;0.26;75.43;99014.86;1710169;82;21546;-51
2022/02/05 12:10:52;;;;;;;15.30;8.73;;;;;;;0.27;75.33;99018.81;1707315;82;21580;-50
2022/02/05 12:13:23;;;;;;;18.90;10.53;;;;;;;0.29;75.23;99013.49;1711521;82;22450;-51
2022/02/05 12:16:02;;;;;;;17.20;10.33;;;;;;;0.32;75.21;99008.15;1708693;82;21028;-50
2022/02/05 12:18:34;;;;;;;15.33;9.63;;;;;;;0.35;75.08;99018.66;1686109;84;21485;-49
2022/02/05 12:21:05;;;;;;;17.47;10.87;;;;;;;0.36;75.00;99014.66;1685735;84;21236;-52
2022/02/05 12:26:31;;;;;;;16.50;9.83;;;;;;;0.42;74.80;98999.59;1687441;84;21086;-50
2022/02/05 12:29:02;;;;;;;17.43;9.27;;;;;;;0.44;74.68;99002.60;1684258;84;22437;-50
2022/02/05 12:31:36;;;;;;;17.97;10.37;;;;;;;0.47;74.61;99005.20;1688192;84;20904;-50
2022/02/05 12:34:11;;;;;;;17.67;9.93;;;;;;;0.49;74.49;98998.11;1686465;84;20986;-51
2022/02/05 12:36:51;;;;;;;20.90;10.70;;;;;;;0.51;74.34;99000.73;1686665;83;22269;-50
2022/02/05 12:39:22;;;;;;;18.33;9.50;;;;;;;0.50;74.29;98998.53;1686151;84;21066;-51
2022/02/05 12:42:01;;;;;;;18.83;10.30;;;;;;;0.50;74.23;98998.53;1702938;82;22367;-50
2022/02/05 12:44:29;;;;;;;16.47;10.57;;;;;;;0.52;74.09;98995.37;1703815;82;20994;-50
2022/02/05 12:47:12;;;;;;;15.70;9.20;;;;;;;0.53;74.01;98999.77;1704713;82;20923;-50
2022/02/05 12:49:45;;;;;;;18.23;11.07;;;;;;;0.54;73.98;98994.03;1703173;83;22423;-50
2022/02/05 12:52:05;;;;;;;14.53;8.10;;;;;;;0.54;73.96;98989.60;1700618;82;21053;-51
2022/02/05 12:54:34;;;;;;;13.70;7.83;;;;;;;0.53;73.93;98989.18;1706172;82;21122;-51
2022/02/05 12:57:01;;;;;;;15.07;7.80;;;;;;;0.55;73.91;98984.73;1701440;82;21406;-53
2022/02/05 12:59:35;;;;;;;16.70;9.70;;;;;;;0.57;73.85;98983.38;1702113;82;21406;-51
2022/02/05 13:02:10;;;;;;;21.75;9.80;;;;;;;0.57;73.79;98976.77;1702039;82;21059;-50
2022/02/05 13:04:48;;;;;;;15.50;9.23;;;;;;;0.58;73.79;98965.27;1704306;82;20926;-50
2022/02/05 13:07:21;;;;;;;13.67;9.10;;;;;;;0.61;73.82;98966.52;1705121;83;21124;-52
2022/02/05 13:10:05;;;;;;;17.37;9.77;;;;;;;0.63;73.74;98964.27;1701569;82;21086;-53
2022/02/05 13:12:34;;;;;;;15.00;8.40;;;;;;;0.65;73.64;98963.78;1702357;82;21005;-50
2022/02/05 13:26:42;;;;;;;14.93;9.37;;;;;;;0.65;73.45;98966.88;1747529;80;21367;-50
2022/02/05 13:34:25;;;;;;;15.83;9.43;;;;;;;0.67;73.35;98965.95;1743746;80;22161;-51
2022/02/05 13:37:07;;;;;;;13.53;8.63;;;;;;;0.67;73.33;98958.02;1745857;80;20953;-50
2022/02/05 13:39:46;;;;;;;16.67;8.10;;;;;;;0.67;73.38;98964.63;1744836;80;20950;-51
2022/02/05 13:42:13;;;;;;;15.23;9.87;;;;;;;0.66;73.41;98972.16;1745697;80;20923;-50
2022/02/05 13:45:11;;;;;;;13.83;8.53;;;;;;;0.65;73.46;98973.05;1748471;80;20974;-50
2022/02/05 13:47:37;;;;;;;16.80;9.80;;;;;;;0.66;73.48;98977.90;1742735;80;21133;-50
2022/02/05 13:50:11;;;;;;;13.73;8.60;;;;;;;0.64;73.56;98962.03;1746647;80;20951;-50
2022/02/05 13:52:41;;;;;;;15.95;9.90;;;;;;;0.63;73.55;98973.53;1744484;80;20974;-50
2022/02/05 13:55:37;;;;;;;18.10;9.23;;;;;;;0.63;73.58;98965.58;1747502;80;20923;-50
2022/02/05 13:58:09;;;;;;;13.27;8.73;;;;;;;0.64;73.66;98967.78;1745821;80;20965;-49
2022/02/05 14:00:43;;;;;;;15.63;7.80;;;;;;;0.63;73.69;98958.97;1743512;80;21092;-50
2022/02/05 14:03:10;;;;;;;13.30;9.30;;;;;;;0.64;73.77;98959.84;1746819;80;20894;-49
2022/02/05 14:05:45;;;;;;;16.13;9.03;;;;;;;0.64;73.89;98962.48;1749060;80;21260;-50
2022/02/05 14:08:24;;;;;;;14.70;8.87;;;;;;;0.63;74.01;98962.94;1745886;80;20963;-50
2022/02/05 14:10:56;;;;;;;15.77;9.00;;;;;;;0.62;74.11;98958.54;1748175;80;20971;-50
2022/02/05 14:13:22;;;;;;;12.17;8.53;;;;;;;0.61;74.26;98962.54;1745972;80;21759;-50
2022/02/05 14:15:54;;;;;;;12.20;8.57;;;;;;;0.60;74.30;98958.14;1743683;80;20883;-50
2022/02/05 14:18:16;;;;;;;14.83;8.30;;;;;;;0.59;74.44;98957.75;1748621;81;20974;-50
2022/02/05 14:20:58;;;;;;;11.63;8.63;;;;;;;0.57;74.60;98956.45;1752570;81;20967;-51
2022/02/05 14:23:27;;;;;;;14.63;9.27;;;;;;;0.53;74.71;98957.41;1751262;81;21322;-53
2022/02/05 14:26:10;;;;;;;12.90;8.73;;;;;;;0.54;74.87;98964.45;1749125;80;21107;-51
2022/02/05 14:28:46;;;;;;;14.20;8.03;;;;;;;0.52;74.98;98949.03;1747527;81;20939;-52